createdAt,value
2024-01-03T00:02:02.534Z,5.84
2024-01-03T00:07:23.273Z,5.83
2024-01-03T00:12:43.895Z,5.83
2024-01-03T00:18:05.844Z,5.84
2024-01-03T00:23:38.944Z,5.79
2024-01-03T00:29:00.218Z,5.85
2024-01-03T00:34:41.314Z,5.82
2024-01-03T00:40:05.972Z,5.82
2024-01-03T00:45:26.717Z,5.87
2024-01-03T00:50:48.491Z,5.89
2024-01-03T00:56:09.327Z,5.89
2024-01-03T01:01:29.885Z,5.89
2024-01-03T01:06:50.841Z,5.90
2024-01-03T01:12:11.733Z,5.91
2024-01-03T01:17:32.426Z,5.91
2024-01-03T01:22:53.075Z,5.91
2024-01-03T01:28:13.704Z,5.92
2024-01-03T01:33:34.503Z,5.94
2024-01-03T01:38:55.446Z,5.95
2024-01-03T01:44:16.532Z,5.98
2024-01-03T01:49:36.922Z,5.99
2024-01-03T01:54:58.162Z,6.00
2024-01-03T02:00:19.235Z,6.01
2024-01-03T02:05:40.765Z,6.06
2024-01-03T02:11:04.243Z,6.08
2024-01-03T02:16:24.652Z,6.09
2024-01-03T02:21:45.387Z,6.09
2024-01-03T02:27:06.130Z,6.15
2024-01-03T02:32:26.577Z,6.20
2024-01-03T02:37:47.001Z,6.27
2024-01-03T02:43:07.668Z,6.31
2024-01-03T02:48:28.145Z,6.31
2024-01-03T02:53:49.331Z,6.33
2024-01-03T02:59:09.885Z,6.32
2024-01-03T03:04:30.442Z,6.32
2024-01-03T03:09:50.936Z,6.30
2024-01-03T03:15:11.489Z,6.31
2024-01-03T03:20:32.215Z,6.37
2024-01-03T03:25:53.045Z,6.41
2024-01-03T03:31:13.599Z,6.45
2024-01-03T03:36:34.097Z,6.44
2024-01-03T03:41:54.952Z,6.49
2024-01-03T03:47:15.715Z,6.53
2024-01-03T03:52:36.928Z,6.52
2024-01-03T03:57:57.200Z,6.52
2024-01-03T04:03:18.227Z,6.50
2024-01-03T04:08:43.023Z,6.50
2024-01-03T04:14:03.619Z,6.53
2024-01-03T04:19:24.242Z,6.57
2024-01-03T04:24:44.814Z,6.58
2024-01-03T04:30:06.669Z,6.61
2024-01-03T04:35:27.462Z,6.62
2024-01-03T04:40:48.221Z,6.63
2024-01-03T04:46:08.618Z,6.64
2024-01-03T04:51:29.344Z,6.64
2024-01-03T04:56:50.316Z,6.64
2024-01-03T05:02:11.119Z,6.63
2024-01-03T05:07:35.147Z,6.61
2024-01-03T05:12:55.560Z,6.58
2024-01-03T05:18:16.639Z,6.58
2024-01-03T05:23:37.721Z,6.64
2024-01-03T05:28:58.445Z,6.67
2024-01-03T05:34:19.202Z,6.72
2024-01-03T05:39:39.790Z,6.77
2024-01-03T05:45:00.248Z,6.82
2024-01-03T05:50:20.527Z,6.90
2024-01-03T05:55:40.918Z,6.91
2024-01-03T06:01:01.512Z,6.92
2024-01-03T06:06:21.979Z,6.95
2024-01-03T06:11:42.337Z,6.97
2024-01-03T06:17:02.581Z,6.96
2024-01-03T06:22:23.227Z,6.95
2024-01-03T06:27:43.915Z,6.94
2024-01-03T06:33:04.986Z,6.95
2024-01-03T06:38:25.652Z,6.94
2024-01-03T06:43:46.238Z,6.92
2024-01-03T06:49:07.285Z,6.91
2024-01-03T06:54:27.951Z,6.87
2024-01-03T06:59:48.524Z,6.86
2024-01-03T07:05:09.642Z,6.88
2024-01-03T07:10:32.275Z,6.87
2024-01-03T07:15:52.969Z,6.88
2024-01-03T07:21:13.653Z,6.89
2024-01-03T07:26:34.171Z,6.91
2024-01-03T07:31:54.551Z,6.91
2024-01-03T07:37:15.292Z,6.91
2024-01-03T07:42:35.901Z,6.91
2024-01-03T07:47:56.501Z,6.89
2024-01-03T07:53:16.736Z,6.89
2024-01-03T07:58:37.277Z,6.89
2024-01-03T08:03:57.684Z,6.88
2024-01-03T08:09:18.587Z,6.89
2024-01-03T08:14:39.245Z,6.90
2024-01-03T08:19:59.954Z,6.87
2024-01-03T08:25:20.436Z,6.82
2024-01-03T08:30:41.084Z,6.81
2024-01-03T08:36:02.752Z,6.77
2024-01-03T08:41:23.833Z,6.77
2024-01-03T08:46:44.661Z,6.76
2024-01-03T08:52:05.755Z,6.73
2024-01-03T08:57:25.970Z,6.67
2024-01-03T09:02:46.725Z,6.62
2024-01-03T09:08:07.383Z,6.60
2024-01-03T09:13:29.176Z,6.59
2024-01-03T09:18:51.109Z,6.52
2024-01-03T09:24:12.048Z,6.48
2024-01-03T09:29:32.912Z,6.48
2024-01-03T09:34:53.590Z,6.47
2024-01-03T09:40:14.058Z,6.48
2024-01-03T09:45:34.850Z,6.52
2024-01-03T09:50:55.433Z,6.56
2024-01-03T09:56:15.873Z,6.57
2024-01-03T10:01:36.587Z,6.66
2024-01-03T10:06:59.162Z,6.81
2024-01-03T10:12:20.524Z,7.21
2024-01-03T10:17:43.981Z,7.57
2024-01-03T10:23:06.237Z,7.71
2024-01-03T10:28:27.065Z,7.88
2024-01-03T10:33:58.690Z,8.01
2024-01-03T10:39:24.052Z,7.99
2024-01-03T10:44:45.051Z,7.87
2024-01-03T10:50:06.762Z,7.73
2024-01-03T10:55:34.519Z,7.63
2024-01-03T11:01:12.408Z,7.46
2024-01-03T11:06:39.220Z,7.46
2024-01-03T11:12:08.838Z,7.48
2024-01-03T11:17:34.330Z,7.37
2024-01-03T11:22:59.351Z,7.30
2024-01-03T11:28:33.299Z,7.22
2024-01-03T11:33:54.093Z,7.29
2024-01-03T11:39:35.361Z,7.20
2024-01-03T11:45:08.475Z,7.17
2024-01-03T11:50:35.708Z,7.05
2024-01-03T11:55:57.283Z,7.04
2024-01-03T12:01:17.745Z,7.03
2024-01-03T12:06:38.948Z,6.96
2024-01-03T12:12:01.214Z,6.91
2024-01-03T12:17:26.685Z,6.79
2024-01-03T12:22:47.254Z,6.77
2024-01-03T12:28:08.450Z,6.70
2024-01-03T12:33:29.242Z,6.63
2024-01-03T12:38:58.918Z,6.55
2024-01-03T12:44:19.326Z,6.51
2024-01-03T12:49:42.068Z,6.48
2024-01-03T12:55:04.398Z,6.49
2024-01-03T13:00:24.832Z,6.55
2024-01-03T13:05:45.366Z,6.57
2024-01-03T13:11:05.784Z,6.63
2024-01-03T13:16:26.424Z,6.64
2024-01-03T13:21:47.234Z,6.62
2024-01-03T13:27:07.774Z,6.67
2024-01-03T13:32:28.549Z,6.62
2024-01-03T13:37:50.070Z,6.59
2024-01-03T13:43:10.592Z,6.55
2024-01-03T13:48:32.079Z,6.55
2024-01-03T13:53:54.670Z,6.51
2024-01-03T13:59:15.018Z,6.42
2024-01-03T14:04:38.483Z,6.35
2024-01-03T14:09:59.307Z,6.35
2024-01-03T14:15:20.591Z,6.30
2024-01-03T14:20:41.273Z,6.27
2024-01-03T14:26:03.470Z,6.17
2024-01-03T14:31:26.872Z,6.15
2024-01-03T14:37:07.299Z,6.05
2024-01-03T14:42:32.391Z,6.11
2024-01-03T14:47:53.181Z,6.06
2024-01-03T14:53:13.988Z,6.02
2024-01-03T14:58:34.447Z,5.99
2024-01-03T15:03:55.101Z,5.99
2024-01-03T15:09:16.702Z,5.95
2024-01-03T15:14:40.086Z,5.90
2024-01-03T15:20:00.932Z,5.87
2024-01-03T15:25:21.561Z,5.80
2024-01-03T15:30:43.156Z,5.72
2024-01-03T15:36:03.787Z,5.69
2024-01-03T15:41:25.694Z,5.68
2024-01-03T15:46:46.167Z,5.65
2024-01-03T15:52:10.888Z,5.56
2024-01-03T15:57:31.589Z,5.51
2024-01-03T16:02:53.409Z,5.45
2024-01-03T16:08:14.785Z,5.41
2024-01-03T16:13:35.292Z,5.36
2024-01-03T16:18:56.205Z,5.29
2024-01-03T16:24:16.652Z,5.21
2024-01-03T16:29:37.558Z,5.19
2024-01-03T16:34:57.987Z,5.20
2024-01-03T16:40:20.632Z,5.17
2024-01-03T16:45:41.674Z,5.06
2024-01-03T16:51:02.428Z,5.00
2024-01-03T16:56:22.886Z,4.95
2024-01-03T17:01:46.584Z,4.92
2024-01-03T17:07:07.102Z,4.77
2024-01-03T17:12:27.792Z,4.83
2024-01-03T17:17:48.777Z,4.85
2024-01-03T17:23:09.710Z,4.82
2024-01-03T17:28:30.413Z,4.84
2024-01-03T17:33:51.596Z,4.87
2024-01-03T17:39:12.404Z,4.88
2024-01-03T17:44:32.849Z,4.84
2024-01-03T17:49:58.749Z,4.82
2024-01-03T17:55:19.375Z,4.78
2024-01-03T18:00:40.705Z,4.76
2024-01-03T18:06:04.616Z,4.74
2024-01-03T18:11:25.368Z,4.75
2024-01-03T18:16:46.239Z,4.75
2024-01-03T18:22:07.729Z,4.78
2024-01-03T18:27:28.348Z,4.71
2024-01-03T18:32:53.519Z,4.64
2024-01-03T18:38:15.361Z,4.62
2024-01-03T18:43:36.048Z,4.60
2024-01-03T18:48:56.924Z,4.58
2024-01-03T18:54:17.997Z,4.61
2024-01-03T18:59:40.452Z,4.61
2024-01-03T19:05:01.445Z,4.65
2024-01-03T19:10:21.749Z,4.64
2024-01-03T19:15:43.424Z,4.70
2024-01-03T19:21:04.367Z,4.67
2024-01-03T19:26:26.678Z,4.66
2024-01-03T19:31:47.296Z,4.68
2024-01-03T19:37:08.768Z,4.67
2024-01-03T19:42:29.420Z,4.59
2024-01-03T19:47:50.655Z,4.61
2024-01-03T19:53:11.248Z,4.67
2024-01-03T19:58:32.167Z,4.64
2024-01-03T20:03:52.818Z,4.56
2024-01-03T20:09:13.582Z,4.55
2024-01-03T20:14:34.395Z,4.53
2024-01-03T20:19:55.395Z,4.48
2024-01-03T20:25:17.380Z,4.37
2024-01-03T20:30:38.009Z,4.32
2024-01-03T20:35:58.453Z,4.27
2024-01-03T20:41:21.431Z,4.19
2024-01-03T20:46:42.672Z,4.19
2024-01-03T20:52:03.657Z,4.24
2024-01-03T20:57:24.775Z,4.16
2024-01-03T21:02:45.368Z,4.07
2024-01-03T21:08:06.839Z,3.99
2024-01-03T21:13:27.357Z,3.98
2024-01-03T21:18:48.621Z,3.92
2024-01-03T21:24:10.485Z,3.96
2024-01-03T21:29:31.694Z,3.96
2024-01-03T21:34:52.427Z,3.83
2024-01-03T21:40:13.494Z,3.83
2024-01-03T21:45:34.113Z,3.92
2024-01-03T21:50:55.152Z,3.88
2024-01-03T21:56:15.534Z,3.75
2024-01-03T22:01:36.336Z,3.71
2024-01-03T22:06:57.135Z,3.53
2024-01-03T22:12:17.716Z,3.52
2024-01-03T22:17:38.325Z,3.42
2024-01-03T22:23:01.473Z,3.35
2024-01-03T22:28:23.621Z,3.26
2024-01-03T22:33:44.087Z,3.30
2024-01-03T22:39:05.824Z,3.25
2024-01-03T22:44:26.216Z,3.15
2024-01-03T22:49:47.018Z,3.13
2024-01-03T22:55:08.734Z,3.05
2024-01-03T23:00:29.052Z,3.06
2024-01-03T23:05:49.608Z,3.00
2024-01-03T23:11:11.690Z,2.95
2024-01-03T23:16:32.298Z,2.92
2024-01-03T23:21:53.562Z,2.84
2024-01-03T23:27:14.181Z,2.88
2024-01-03T23:32:34.971Z,2.92
2024-01-03T23:37:56.039Z,2.92
2024-01-03T23:43:16.961Z,2.84
2024-01-03T23:48:37.896Z,2.73
2024-01-03T23:53:58.538Z,2.67
2024-01-03T23:59:19.376Z,2.74
